sensor_id;sensor_type;location;lat;lon;timestamp;P1;durP1;ratioP1;P2;durP2;ratioP2
36797;SDS011;22748;8.426;99.512;2022-12-07T00:01:27;21.45;;;16.15;;
36797;SDS011;22748;8.426;99.512;2022-12-07T00:03:59;19.48;;;11.38;;
36797;SDS011;22748;8.426;99.512;2022-12-07T00:06:32;7.43;;;5.40;;
36797;SDS011;22748;8.426;99.512;2022-12-07T00:09:04;18.98;;;6.00;;
36797;SDS011;22748;8.426;99.512;2022-12-07T00:11:40;6.82;;;4.63;;
36797;SDS011;22748;8.426;99.512;2022-12-07T00:14:12;4.50;;;3.67;;
36797;SDS011;22748;8.426;99.512;2022-12-07T00:16:48;47.35;;;25.63;;
36797;SDS011;22748;8.426;99.512;2022-12-07T00:19:20;24.67;;;12.65;;
36797;SDS011;22748;8.426;99.512;2022-12-07T00:21:51;15.63;;;8.27;;
36797;SDS011;22748;8.426;99.512;2022-12-07T00:24:22;9.23;;;5.38;;
36797;SDS011;22748;8.426;99.512;2022-12-07T00:26:53;6.85;;;4.35;;
36797;SDS011;22748;8.426;99.512;2022-12-07T00:29:24;8.00;;;3.70;;
36797;SDS011;22748;8.426;99.512;2022-12-07T00:31:56;4.88;;;3.95;;
36797;SDS011;22748;8.426;99.512;2022-12-07T00:34:27;6.22;;;3.70;;
36797;SDS011;22748;8.426;99.512;2022-12-07T00:36:58;8.57;;;5.10;;
36797;SDS011;22748;8.426;99.512;2022-12-07T00:42:01;35.40;;;20.30;;
36797;SDS011;22748;8.426;99.512;2022-12-07T00:44:32;42.67;;;25.13;;
36797;SDS011;22748;8.426;99.512;2022-12-07T00:47:04;45.55;;;26.92;;
36797;SDS011;22748;8.426;99.512;2022-12-07T00:49:36;39.85;;;24.60;;
36797;SDS011;22748;8.426;99.512;2022-12-07T00:52:08;31.42;;;18.40;;
36797;SDS011;22748;8.426;99.512;2022-12-07T00:54:40;34.47;;;22.27;;
36797;SDS011;22748;8.426;99.512;2022-12-07T00:57:11;28.92;;;16.75;;
36797;SDS011;22748;8.426;99.512;2022-12-07T00:59:43;17.58;;;11.95;;
36797;SDS011;22748;8.426;99.512;2022-12-07T01:02:14;18.63;;;11.73;;
36797;SDS011;22748;8.426;99.512;2022-12-07T01:04:44;19.52;;;11.98;;
36797;SDS011;22748;8.426;99.512;2022-12-07T01:07:14;17.45;;;9.07;;
36797;SDS011;22748;8.426;99.512;2022-12-07T01:09:44;12.57;;;7.85;;
36797;SDS011;22748;8.426;99.512;2022-12-07T01:12:15;13.03;;;8.43;;
36797;SDS011;22748;8.426;99.512;2022-12-07T01:14:46;11.50;;;8.25;;
36797;SDS011;22748;8.426;99.512;2022-12-07T01:19:49;10.48;;;6.57;;
36797;SDS011;22748;8.426;99.512;2022-12-07T01:22:20;11.65;;;6.70;;
36797;SDS011;22748;8.426;99.512;2022-12-07T01:24:51;7.95;;;5.25;;
36797;SDS011;22748;8.426;99.512;2022-12-07T01:27:22;6.95;;;5.20;;
36797;SDS011;22748;8.426;99.512;2022-12-07T01:29:52;7.45;;;5.45;;
36797;SDS011;22748;8.426;99.512;2022-12-07T01:32:24;9.63;;;4.82;;
36797;SDS011;22748;8.426;99.512;2022-12-07T01:34:56;9.85;;;5.13;;
36797;SDS011;22748;8.426;99.512;2022-12-07T01:37:26;9.50;;;5.03;;
36797;SDS011;22748;8.426;99.512;2022-12-07T01:39:57;11.75;;;6.03;;
36797;SDS011;22748;8.426;99.512;2022-12-07T01:42:30;10.52;;;4.50;;
36797;SDS011;22748;8.426;99.512;2022-12-07T01:48:02;17.77;;;5.38;;
36797;SDS011;22748;8.426;99.512;2022-12-07T01:50:34;10.25;;;4.65;;
36797;SDS011;22748;8.426;99.512;2022-12-07T01:53:08;11.05;;;4.45;;
36797;SDS011;22748;8.426;99.512;2022-12-07T01:55:41;6.70;;;4.10;;
36797;SDS011;22748;8.426;99.512;2022-12-07T01:58:15;10.05;;;5.80;;
36797;SDS011;22748;8.426;99.512;2022-12-07T02:00:48;12.73;;;4.22;;
36797;SDS011;22748;8.426;99.512;2022-12-07T02:05:53;15.07;;;4.78;;
36797;SDS011;22748;8.426;99.512;2022-12-07T02:08:23;11.90;;;3.90;;
36797;SDS011;22748;8.426;99.512;2022-12-07T02:10:54;30.83;;;9.73;;
36797;SDS011;22748;8.426;99.512;2022-12-07T02:13:27;13.30;;;5.03;;
36797;SDS011;22748;8.426;99.512;2022-12-07T02:16:04;19.35;;;4.63;;
36797;SDS011;22748;8.426;99.512;2022-12-07T02:18:48;16.92;;;4.22;;
36797;SDS011;22748;8.426;99.512;2022-12-07T02:21:34;13.00;;;3.67;;
36797;SDS011;22748;8.426;99.512;2022-12-07T02:30:03;10.20;;;3.10;;
36797;SDS011;22748;8.426;99.512;2022-12-07T02:32:39;21.80;;;4.88;;
36797;SDS011;22748;8.426;99.512;2022-12-07T02:35:17;23.08;;;5.53;;
36797;SDS011;22748;8.426;99.512;2022-12-07T02:37:53;11.02;;;3.88;;
36797;SDS011;22748;8.426;99.512;2022-12-07T02:40:33;15.75;;;6.28;;
36797;SDS011;22748;8.426;99.512;2022-12-07T02:43:07;11.88;;;4.85;;
36797;SDS011;22748;8.426;99.512;2022-12-07T02:45:43;10.50;;;4.68;;
36797;SDS011;22748;8.426;99.512;2022-12-07T02:48:16;14.98;;;4.30;;
36797;SDS011;22748;8.426;99.512;2022-12-07T02:50:48;10.30;;;3.47;;
36797;SDS011;22748;8.426;99.512;2022-12-07T02:53:29;8.60;;;3.35;;
36797;SDS011;22748;8.426;99.512;2022-12-07T02:56:07;11.32;;;3.38;;
36797;SDS011;22748;8.426;99.512;2022-12-07T02:58:52;16.25;;;5.88;;
36797;SDS011;22748;8.426;99.512;2022-12-07T03:01:35;14.23;;;4.10;;
36797;SDS011;22748;8.426;99.512;2022-12-07T03:04:14;14.73;;;4.07;;
36797;SDS011;22748;8.426;99.512;2022-12-07T03:06:58;11.30;;;3.40;;
36797;SDS011;22748;8.426;99.512;2022-12-07T03:09:35;11.65;;;3.70;;
36797;SDS011;22748;8.426;99.512;2022-12-07T03:12:16;11.32;;;3.17;;
36797;SDS011;22748;8.426;99.512;2022-12-07T03:14:52;10.18;;;2.85;;
36797;SDS011;22748;8.426;99.512;2022-12-07T03:17:38;9.57;;;2.70;;
36797;SDS011;22748;8.426;99.512;2022-12-07T03:20:11;7.18;;;2.97;;
36797;SDS011;22748;8.426;99.512;2022-12-07T03:22:48;10.85;;;4.00;;
36797;SDS011;22748;8.426;99.512;2022-12-07T03:25:19;7.85;;;2.80;;
36797;SDS011;22748;8.426;99.512;2022-12-07T03:27:51;10.60;;;3.72;;
36797;SDS011;22748;8.426;99.512;2022-12-07T03:30:27;6.97;;;2.50;;
36797;SDS011;22748;8.426;99.512;2022-12-07T03:33:06;11.57;;;3.17;;
36797;SDS011;22748;8.426;99.512;2022-12-07T03:35:40;11.73;;;3.10;;
36797;SDS011;22748;8.426;99.512;2022-12-07T03:38:14;11.60;;;2.97;;
36797;SDS011;22748;8.426;99.512;2022-12-07T03:40:48;7.63;;;2.67;;
36797;SDS011;22748;8.426;99.512;2022-12-07T03:43:25;8.25;;;2.70;;
36797;SDS011;22748;8.426;99.512;2022-12-07T03:46:00;11.23;;;2.83;;
36797;SDS011;22748;8.426;99.512;2022-12-07T03:48:40;6.97;;;2.47;;
36797;SDS011;22748;8.426;99.512;2022-12-07T03:51:18;11.02;;;2.92;;
36797;SDS011;22748;8.426;99.512;2022-12-07T03:53:53;11.30;;;3.28;;
36797;SDS011;22748;8.426;99.512;2022-12-07T03:56:29;10.90;;;2.67;;
36797;SDS011;22748;8.426;99.512;2022-12-07T03:59:00;20.52;;;4.97;;
36797;SDS011;22748;8.426;99.512;2022-12-07T04:01:32;10.60;;;2.97;;
36797;SDS011;22748;8.426;99.512;2022-12-07T04:04:04;11.98;;;3.10;;
36797;SDS011;22748;8.426;99.512;2022-12-07T04:06:34;21.90;;;5.28;;
36797;SDS011;22748;8.426;99.512;2022-12-07T04:09:05;11.07;;;2.67;;
36797;SDS011;22748;8.426;99.512;2022-12-07T04:11:36;9.77;;;2.60;;
36797;SDS011;22748;8.426;99.512;2022-12-07T04:14:08;7.88;;;2.33;;
36797;SDS011;22748;8.426;99.512;2022-12-07T04:16:49;7.35;;;1.80;;
36797;SDS011;22748;8.426;99.512;2022-12-07T04:19:23;10.88;;;3.35;;
36797;SDS011;22748;8.426;99.512;2022-12-07T04:21:54;7.72;;;3.00;;
36797;SDS011;22748;8.426;99.512;2022-12-07T04:24:24;10.52;;;3.60;;
36797;SDS011;22748;8.426;99.512;2022-12-07T04:26:57;7.72;;;2.40;;
36797;SDS011;22748;8.426;99.512;2022-12-07T04:29:26;9.10;;;2.53;;
36797;SDS011;22748;8.426;99.512;2022-12-07T04:31:57;9.52;;;2.78;;
36797;SDS011;22748;8.426;99.512;2022-12-07T04:34:30;7.72;;;2.00;;
36797;SDS011;22748;8.426;99.512;2022-12-07T04:37:01;9.73;;;2.55;;
36797;SDS011;22748;8.426;99.512;2022-12-07T04:39:32;10.57;;;4.20;;
36797;SDS011;22748;8.426;99.512;2022-12-07T04:42:03;7.25;;;2.45;;
36797;SDS011;22748;8.426;99.512;2022-12-07T04:44:37;6.93;;;2.80;;
36797;SDS011;22748;8.426;99.512;2022-12-07T04:47:10;7.15;;;2.97;;
36797;SDS011;22748;8.426;99.512;2022-12-07T04:49:42;13.73;;;2.65;;
36797;SDS011;22748;8.426;99.512;2022-12-07T04:52:14;10.38;;;2.38;;
36797;SDS011;22748;8.426;99.512;2022-12-07T04:54:44;7.97;;;2.50;;
36797;SDS011;22748;8.426;99.512;2022-12-07T04:57:14;10.70;;;2.25;;
36797;SDS011;22748;8.426;99.512;2022-12-07T04:59:46;11.25;;;2.80;;
36797;SDS011;22748;8.426;99.512;2022-12-07T05:02:19;6.80;;;1.98;;
36797;SDS011;22748;8.426;99.512;2022-12-07T05:04:51;8.05;;;3.78;;
36797;SDS011;22748;8.426;99.512;2022-12-07T05:07:20;7.00;;;2.42;;
36797;SDS011;22748;8.426;99.512;2022-12-07T05:09:55;9.05;;;2.72;;
36797;SDS011;22748;8.426;99.512;2022-12-07T05:12:24;7.57;;;2.47;;
36797;SDS011;22748;8.426;99.512;2022-12-07T05:14:56;8.32;;;2.53;;
36797;SDS011;22748;8.426;99.512;2022-12-07T05:17:27;6.45;;;2.38;;
36797;SDS011;22748;8.426;99.512;2022-12-07T05:20:00;8.00;;;2.38;;
36797;SDS011;22748;8.426;99.512;2022-12-07T05:22:31;9.38;;;2.28;;
36797;SDS011;22748;8.426;99.512;2022-12-07T05:25:02;14.65;;;2.58;;
36797;SDS011;22748;8.426;99.512;2022-12-07T05:30:02;8.23;;;2.28;;
36797;SDS011;22748;8.426;99.512;2022-12-07T05:32:34;15.52;;;2.63;;
36797;SDS011;22748;8.426;99.512;2022-12-07T05:35:06;5.03;;;1.70;;
36797;SDS011;22748;8.426;99.512;2022-12-07T05:37:38;7.60;;;2.00;;
36797;SDS011;22748;8.426;99.512;2022-12-07T05:40:09;8.93;;;2.25;;
36797;SDS011;22748;8.426;99.512;2022-12-07T05:42:41;6.25;;;2.47;;
36797;SDS011;22748;8.426;99.512;2022-12-07T05:45:12;9.25;;;2.42;;
36797;SDS011;22748;8.426;99.512;2022-12-07T05:47:43;6.45;;;2.22;;
36797;SDS011;22748;8.426;99.512;2022-12-07T05:50:14;7.45;;;2.60;;
36797;SDS011;22748;8.426;99.512;2022-12-07T05:52:48;7.70;;;2.05;;
36797;SDS011;22748;8.426;99.512;2022-12-07T05:55:18;6.00;;;2.05;;
36797;SDS011;22748;8.426;99.512;2022-12-07T05:57:50;5.88;;;2.13;;
36797;SDS011;22748;8.426;99.512;2022-12-07T06:00:33;5.93;;;1.95;;
36797;SDS011;22748;8.426;99.512;2022-12-07T06:03:02;7.75;;;1.88;;
36797;SDS011;22748;8.426;99.512;2022-12-07T06:05:35;7.85;;;1.60;;
36797;SDS011;22748;8.426;99.512;2022-12-07T06:08:04;6.75;;;2.13;;
36797;SDS011;22748;8.426;99.512;2022-12-07T06:10:36;7.82;;;2.13;;
36797;SDS011;22748;8.426;99.512;2022-12-07T06:13:07;6.03;;;1.80;;
36797;SDS011;22748;8.426;99.512;2022-12-07T06:15:37;8.53;;;1.93;;
36797;SDS011;22748;8.426;99.512;2022-12-07T06:18:09;9.68;;;1.98;;
36797;SDS011;22748;8.426;99.512;2022-12-07T06:20:43;9.52;;;2.10;;
36797;SDS011;22748;8.426;99.512;2022-12-07T06:23:14;8.55;;;2.15;;
36797;SDS011;22748;8.426;99.512;2022-12-07T06:25:46;6.72;;;2.03;;
36797;SDS011;22748;8.426;99.512;2022-12-07T06:28:16;8.48;;;2.03;;
36797;SDS011;22748;8.426;99.512;2022-12-07T06:30:47;5.60;;;1.70;;
36797;SDS011;22748;8.426;99.512;2022-12-07T06:33:27;10.25;;;2.35;;
36797;SDS011;22748;8.426;99.512;2022-12-07T06:36:02;8.55;;;2.30;;
36797;SDS011;22748;8.426;99.512;2022-12-07T06:38:33;9.55;;;2.05;;
36797;SDS011;22748;8.426;99.512;2022-12-07T06:43:34;6.53;;;1.85;;
36797;SDS011;22748;8.426;99.512;2022-12-07T06:46:05;7.20;;;2.10;;
36797;SDS011;22748;8.426;99.512;2022-12-07T06:48:36;10.63;;;2.50;;
36797;SDS011;22748;8.426;99.512;2022-12-07T06:51:09;7.10;;;1.98;;
36797;SDS011;22748;8.426;99.512;2022-12-07T06:53:39;12.13;;;2.50;;
36797;SDS011;22748;8.426;99.512;2022-12-07T06:56:16;6.82;;;2.45;;
36797;SDS011;22748;8.426;99.512;2022-12-07T06:58:48;10.45;;;2.92;;
36797;SDS011;22748;8.426;99.512;2022-12-07T07:01:18;7.70;;;1.80;;
36797;SDS011;22748;8.426;99.512;2022-12-07T07:03:48;7.90;;;2.20;;
36797;SDS011;22748;8.426;99.512;2022-12-07T07:06:21;6.97;;;2.00;;
36797;SDS011;22748;8.426;99.512;2022-12-07T07:08:53;7.50;;;2.17;;
36797;SDS011;22748;8.426;99.512;2022-12-07T07:11:22;13.93;;;2.35;;
36797;SDS011;22748;8.426;99.512;2022-12-07T07:13:52;11.60;;;2.47;;
36797;SDS011;22748;8.426;99.512;2022-12-07T07:16:29;9.25;;;2.47;;
36797;SDS011;22748;8.426;99.512;2022-12-07T07:18:59;9.70;;;2.70;;
36797;SDS011;22748;8.426;99.512;2022-12-07T07:21:32;6.18;;;1.92;;
36797;SDS011;22748;8.426;99.512;2022-12-07T07:24:03;12.52;;;2.88;;
36797;SDS011;22748;8.426;99.512;2022-12-07T07:26:33;10.40;;;2.58;;
36797;SDS011;22748;8.426;99.512;2022-12-07T07:29:04;8.02;;;2.50;;
36797;SDS011;22748;8.426;99.512;2022-12-07T07:34:05;5.32;;;2.63;;
36797;SDS011;22748;8.426;99.512;2022-12-07T07:36:37;6.80;;;2.90;;
36797;SDS011;22748;8.426;99.512;2022-12-07T07:39:07;10.75;;;2.85;;
36797;SDS011;22748;8.426;99.512;2022-12-07T07:41:39;8.18;;;3.08;;
36797;SDS011;22748;8.426;99.512;2022-12-07T07:44:10;13.20;;;3.15;;
36797;SDS011;22748;8.426;99.512;2022-12-07T07:46:41;8.75;;;3.20;;
36797;SDS011;22748;8.426;99.512;2022-12-07T07:49:14;9.13;;;2.70;;
36797;SDS011;22748;8.426;99.512;2022-12-07T07:51:46;4.40;;;2.13;;
36797;SDS011;22748;8.426;99.512;2022-12-07T07:54:19;5.32;;;2.25;;
36797;SDS011;22748;8.426;99.512;2022-12-07T07:56:51;8.55;;;2.40;;
36797;SDS011;22748;8.426;99.512;2022-12-07T07:59:24;9.02;;;2.83;;
36797;SDS011;22748;8.426;99.512;2022-12-07T08:01:54;10.83;;;3.03;;
36797;SDS011;22748;8.426;99.512;2022-12-07T08:04:23;10.70;;;2.72;;
36797;SDS011;22748;8.426;99.512;2022-12-07T08:06:56;8.95;;;3.40;;
36797;SDS011;22748;8.426;99.512;2022-12-07T08:09:27;12.07;;;3.33;;
36797;SDS011;22748;8.426;99.512;2022-12-07T08:11:56;10.40;;;3.83;;
36797;SDS011;22748;8.426;99.512;2022-12-07T08:14:27;14.00;;;3.78;;
36797;SDS011;22748;8.426;99.512;2022-12-07T08:16:57;9.85;;;3.55;;
36797;SDS011;22748;8.426;99.512;2022-12-07T08:19:27;19.75;;;4.45;;
36797;SDS011;22748;8.426;99.512;2022-12-07T08:22:00;14.63;;;3.60;;
36797;SDS011;22748;8.426;99.512;2022-12-07T08:24:33;11.07;;;3.30;;
36797;SDS011;22748;8.426;99.512;2022-12-07T08:27:02;15.90;;;3.97;;
36797;SDS011;22748;8.426;99.512;2022-12-07T08:29:32;14.35;;;3.72;;
36797;SDS011;22748;8.426;99.512;2022-12-07T08:32:03;9.63;;;3.60;;
36797;SDS011;22748;8.426;99.512;2022-12-07T08:34:33;7.90;;;3.55;;
36797;SDS011;22748;8.426;99.512;2022-12-07T08:37:05;6.97;;;3.42;;
36797;SDS011;22748;8.426;99.512;2022-12-07T08:39:35;11.57;;;3.55;;
36797;SDS011;22748;8.426;99.512;2022-12-07T08:42:05;11.65;;;3.15;;
36797;SDS011;22748;8.426;99.512;2022-12-07T08:44:34;8.95;;;3.40;;
36797;SDS011;22748;8.426;99.512;2022-12-07T08:47:04;12.55;;;4.00;;
36797;SDS011;22748;8.426;99.512;2022-12-07T08:49:37;7.40;;;3.35;;
36797;SDS011;22748;8.426;99.512;2022-12-07T08:52:11;10.40;;;3.03;;
36797;SDS011;22748;8.426;99.512;2022-12-07T08:54:42;7.55;;;3.53;;
36797;SDS011;22748;8.426;99.512;2022-12-07T08:57:14;9.38;;;3.58;;
36797;SDS011;22748;8.426;99.512;2022-12-07T08:59:45;14.57;;;3.70;;
36797;SDS011;22748;8.426;99.512;2022-12-07T09:02:16;9.90;;;4.30;;
36797;SDS011;22748;8.426;99.512;2022-12-07T09:04:46;7.85;;;4.03;;
36797;SDS011;22748;8.426;99.512;2022-12-07T09:07:17;9.43;;;3.92;;
36797;SDS011;22748;8.426;99.512;2022-12-07T09:09:47;9.38;;;4.28;;
36797;SDS011;22748;8.426;99.512;2022-12-07T09:12:18;9.90;;;3.70;;
36797;SDS011;22748;8.426;99.512;2022-12-07T09:14:47;6.00;;;3.10;;
36797;SDS011;22748;8.426;99.512;2022-12-07T09:17:18;10.35;;;4.22;;
36797;SDS011;22748;8.426;99.512;2022-12-07T09:19:49;13.63;;;4.13;;
36797;SDS011;22748;8.426;99.512;2022-12-07T09:22:21;14.00;;;5.88;;
36797;SDS011;22748;8.426;99.512;2022-12-07T09:24:51;15.50;;;5.55;;
36797;SDS011;22748;8.426;99.512;2022-12-07T09:27:21;20.85;;;6.30;;
36797;SDS011;22748;8.426;99.512;2022-12-07T09:29:52;12.90;;;5.38;;
36797;SDS011;22748;8.426;99.512;2022-12-07T09:32:22;16.33;;;6.00;;
36797;SDS011;22748;8.426;99.512;2022-12-07T09:34:52;10.65;;;3.85;;
36797;SDS011;22748;8.426;99.512;2022-12-07T09:37:25;7.32;;;3.25;;
36797;SDS011;22748;8.426;99.512;2022-12-07T09:39:56;10.55;;;3.72;;
36797;SDS011;22748;8.426;99.512;2022-12-07T09:42:27;11.65;;;4.00;;
36797;SDS011;22748;8.426;99.512;2022-12-07T09:45:06;13.43;;;4.40;;
36797;SDS011;22748;8.426;99.512;2022-12-07T09:47:46;9.25;;;3.42;;
36797;SDS011;22748;8.426;99.512;2022-12-07T09:50:20;10.60;;;3.40;;
36797;SDS011;22748;8.426;99.512;2022-12-07T09:52:55;8.52;;;2.88;;
36797;SDS011;22748;8.426;99.512;2022-12-07T09:55:35;9.63;;;3.20;;
36797;SDS011;22748;8.426;99.512;2022-12-07T09:58:08;7.18;;;2.97;;
36797;SDS011;22748;8.426;99.512;2022-12-07T10:00:45;11.55;;;4.22;;
36797;SDS011;22748;8.426;99.512;2022-12-07T10:03:17;6.97;;;3.70;;
36797;SDS011;22748;8.426;99.512;2022-12-07T10:05:49;8.85;;;4.45;;
36797;SDS011;22748;8.426;99.512;2022-12-07T10:08:24;11.05;;;5.53;;
36797;SDS011;22748;8.426;99.512;2022-12-07T10:10:55;9.45;;;4.30;;
36797;SDS011;22748;8.426;99.512;2022-12-07T10:13:34;8.38;;;4.72;;
36797;SDS011;22748;8.426;99.512;2022-12-07T10:16:05;9.05;;;4.47;;
36797;SDS011;22748;8.426;99.512;2022-12-07T10:19:00;9.35;;;5.00;;
36797;SDS011;22748;8.426;99.512;2022-12-07T10:22:03;8.80;;;3.70;;
36797;SDS011;22748;8.426;99.512;2022-12-07T10:24:39;11.23;;;3.80;;
36797;SDS011;22748;8.426;99.512;2022-12-07T10:27:17;9.65;;;4.18;;
36797;SDS011;22748;8.426;99.512;2022-12-07T10:30:06;9.68;;;3.70;;
36797;SDS011;22748;8.426;99.512;2022-12-07T10:32:42;6.43;;;3.13;;
36797;SDS011;22748;8.426;99.512;2022-12-07T10:35:20;4.80;;;2.80;;
36797;SDS011;22748;8.426;99.512;2022-12-07T10:37:54;5.17;;;2.70;;
36797;SDS011;22748;8.426;99.512;2022-12-07T10:40:30;6.20;;;2.60;;
36797;SDS011;22748;8.426;99.512;2022-12-07T10:43:04;6.07;;;2.33;;
36797;SDS011;22748;8.426;99.512;2022-12-07T10:46:01;5.13;;;3.00;;
36797;SDS011;22748;8.426;99.512;2022-12-07T10:48:53;8.30;;;3.85;;
36797;SDS011;22748;8.426;99.512;2022-12-07T10:51:34;12.32;;;6.32;;
36797;SDS011;22748;8.426;99.512;2022-12-07T10:54:15;13.00;;;8.10;;
36797;SDS011;22748;8.426;99.512;2022-12-07T10:57:03;11.13;;;8.65;;
36797;SDS011;22748;8.426;99.512;2022-12-07T10:59:54;10.93;;;7.70;;
36797;SDS011;22748;8.426;99.512;2022-12-07T11:02:58;11.27;;;8.25;;
36797;SDS011;22748;8.426;99.512;2022-12-07T11:05:49;10.80;;;8.10;;
36797;SDS011;22748;8.426;99.512;2022-12-07T11:08:31;11.30;;;8.20;;
36797;SDS011;22748;8.426;99.512;2022-12-07T11:11:14;11.60;;;7.45;;
36797;SDS011;22748;8.426;99.512;2022-12-07T11:13:56;12.38;;;8.10;;
36797;SDS011;22748;8.426;99.512;2022-12-07T11:16:38;11.02;;;7.35;;
36797;SDS011;22748;8.426;99.512;2022-12-07T11:22:20;9.52;;;6.30;;
36797;SDS011;22748;8.426;99.512;2022-12-07T11:25:01;12.93;;;7.25;;
36797;SDS011;22748;8.426;99.512;2022-12-07T11:27:46;12.85;;;5.90;;
36797;SDS011;22748;8.426;99.512;2022-12-07T11:30:32;15.80;;;7.30;;
36797;SDS011;22748;8.426;99.512;2022-12-07T11:33:13;16.10;;;9.45;;
36797;SDS011;22748;8.426;99.512;2022-12-07T11:35:54;16.17;;;10.40;;
36797;SDS011;22748;8.426;99.512;2022-12-07T11:38:41;12.20;;;8.10;;
36797;SDS011;22748;8.426;99.512;2022-12-07T11:41:15;11.05;;;5.90;;
36797;SDS011;22748;8.426;99.512;2022-12-07T11:43:52;11.50;;;5.95;;
36797;SDS011;22748;8.426;99.512;2022-12-07T11:46:33;12.60;;;6.72;;
36797;SDS011;22748;8.426;99.512;2022-12-07T11:49:14;11.45;;;5.50;;
36797;SDS011;22748;8.426;99.512;2022-12-07T11:51:56;8.80;;;5.47;;
36797;SDS011;22748;8.426;99.512;2022-12-07T11:54:34;10.85;;;6.45;;
36797;SDS011;22748;8.426;99.512;2022-12-07T11:57:12;8.52;;;6.03;;
36797;SDS011;22748;8.426;99.512;2022-12-07T11:59:48;11.32;;;6.97;;
36797;SDS011;22748;8.426;99.512;2022-12-07T12:02:23;11.65;;;7.20;;
36797;SDS011;22748;8.426;99.512;2022-12-07T12:05:02;11.95;;;6.55;;
36797;SDS011;22748;8.426;99.512;2022-12-07T12:07:46;14.70;;;6.95;;
36797;SDS011;22748;8.426;99.512;2022-12-07T12:10:25;12.05;;;7.05;;
36797;SDS011;22748;8.426;99.512;2022-12-07T12:13:18;12.30;;;6.80;;
36797;SDS011;22748;8.426;99.512;2022-12-07T12:16:12;15.27;;;7.25;;
36797;SDS011;22748;8.426;99.512;2022-12-07T12:18:56;13.10;;;5.93;;
36797;SDS011;22748;8.426;99.512;2022-12-07T12:21:41;13.48;;;6.25;;
36797;SDS011;22748;8.426;99.512;2022-12-07T12:24:13;16.25;;;6.80;;
36797;SDS011;22748;8.426;99.512;2022-12-07T12:26:49;13.65;;;6.38;;
36797;SDS011;22748;8.426;99.512;2022-12-07T12:29:23;11.30;;;6.63;;
36797;SDS011;22748;8.426;99.512;2022-12-07T12:32:05;11.35;;;7.20;;
36797;SDS011;22748;8.426;99.512;2022-12-07T12:34:56;16.33;;;7.28;;
36797;SDS011;22748;8.426;99.512;2022-12-07T12:55:16;10.70;;;5.47;;
36797;SDS011;22748;8.426;99.512;2022-12-07T13:03:53;13.43;;;6.40;;
36797;SDS011;22748;8.426;99.512;2022-12-07T13:06:33;13.25;;;5.97;;
36797;SDS011;22748;8.426;99.512;2022-12-07T13:09:16;11.23;;;6.00;;
36797;SDS011;22748;8.426;99.512;2022-12-07T13:11:58;14.38;;;6.20;;
36797;SDS011;22748;8.426;99.512;2022-12-07T13:14:43;16.58;;;6.32;;
36797;SDS011;22748;8.426;99.512;2022-12-07T13:23:20;16.80;;;10.57;;
36797;SDS011;22748;8.426;99.512;2022-12-07T13:26:04;19.23;;;12.50;;
36797;SDS011;22748;8.426;99.512;2022-12-07T13:28:52;17.42;;;11.25;;
36797;SDS011;22748;8.426;99.512;2022-12-07T13:31:36;17.42;;;10.90;;
36797;SDS011;22748;8.426;99.512;2022-12-07T13:37:08;11.63;;;9.57;;
36797;SDS011;22748;8.426;99.512;2022-12-07T13:39:46;13.60;;;8.40;;
36797;SDS011;22748;8.426;99.512;2022-12-07T13:42:24;16.63;;;7.68;;
36797;SDS011;22748;8.426;99.512;2022-12-07T13:44:57;14.80;;;7.63;;
36797;SDS011;22748;8.426;99.512;2022-12-07T13:47:30;11.07;;;7.07;;
36797;SDS011;22748;8.426;99.512;2022-12-07T13:52:55;12.07;;;7.15;;
36797;SDS011;22748;8.426;99.512;2022-12-07T13:55:27;12.60;;;7.03;;
36797;SDS011;22748;8.426;99.512;2022-12-07T13:57:57;11.52;;;6.47;;
36797;SDS011;22748;8.426;99.512;2022-12-07T14:00:31;9.52;;;6.80;;
36797;SDS011;22748;8.426;99.512;2022-12-07T14:03:23;11.80;;;6.15;;
36797;SDS011;22748;8.426;99.512;2022-12-07T14:06:04;13.13;;;6.93;;
36797;SDS011;22748;8.426;99.512;2022-12-07T14:08:42;15.35;;;6.68;;
36797;SDS011;22748;8.426;99.512;2022-12-07T14:11:17;11.90;;;6.88;;
36797;SDS011;22748;8.426;99.512;2022-12-07T14:13:54;14.27;;;8.48;;
36797;SDS011;22748;8.426;99.512;2022-12-07T14:16:31;17.05;;;8.73;;
36797;SDS011;22748;8.426;99.512;2022-12-07T14:19:04;17.92;;;8.68;;
36797;SDS011;22748;8.426;99.512;2022-12-07T14:22:06;13.15;;;6.68;;
36797;SDS011;22748;8.426;99.512;2022-12-07T14:24:41;11.30;;;6.78;;
36797;SDS011;22748;8.426;99.512;2022-12-07T14:27:18;10.07;;;6.25;;
36797;SDS011;22748;8.426;99.512;2022-12-07T14:29:53;11.05;;;5.85;;
36797;SDS011;22748;8.426;99.512;2022-12-07T14:32:28;12.25;;;6.07;;
36797;SDS011;22748;8.426;99.512;2022-12-07T14:34:59;14.43;;;6.07;;
36797;SDS011;22748;8.426;99.512;2022-12-07T14:37:34;10.88;;;5.95;;
36797;SDS011;22748;8.426;99.512;2022-12-07T14:40:07;9.98;;;5.80;;
36797;SDS011;22748;8.426;99.512;2022-12-07T14:42:47;13.50;;;6.47;;
36797;SDS011;22748;8.426;99.512;2022-12-07T14:45:22;11.27;;;6.13;;
36797;SDS011;22748;8.426;99.512;2022-12-07T14:47:58;10.95;;;6.55;;
36797;SDS011;22748;8.426;99.512;2022-12-07T14:50:28;12.90;;;6.03;;
36797;SDS011;22748;8.426;99.512;2022-12-07T14:52:59;10.63;;;5.93;;
36797;SDS011;22748;8.426;99.512;2022-12-07T14:55:33;11.57;;;6.22;;
36797;SDS011;22748;8.426;99.512;2022-12-07T14:58:04;14.93;;;6.13;;
36797;SDS011;22748;8.426;99.512;2022-12-07T15:03:05;12.45;;;5.60;;
36797;SDS011;22748;8.426;99.512;2022-12-07T15:05:35;12.52;;;6.53;;
36797;SDS011;22748;8.426;99.512;2022-12-07T15:08:05;10.43;;;6.22;;
36797;SDS011;22748;8.426;99.512;2022-12-07T15:10:40;10.38;;;6.30;;
36797;SDS011;22748;8.426;99.512;2022-12-07T15:13:10;9.50;;;6.20;;
36797;SDS011;22748;8.426;99.512;2022-12-07T15:15:54;14.25;;;6.57;;
36797;SDS011;22748;8.426;99.512;2022-12-07T15:18:25;14.98;;;6.72;;
36797;SDS011;22748;8.426;99.512;2022-12-07T15:20:57;12.82;;;6.53;;
36797;SDS011;22748;8.426;99.512;2022-12-07T15:23:27;12.23;;;7.22;;
36797;SDS011;22748;8.426;99.512;2022-12-07T15:26:00;11.27;;;7.13;;
36797;SDS011;22748;8.426;99.512;2022-12-07T15:28:31;12.88;;;6.65;;
36797;SDS011;22748;8.426;99.512;2022-12-07T15:31:05;12.50;;;6.20;;
36797;SDS011;22748;8.426;99.512;2022-12-07T15:33:43;15.77;;;6.40;;
36797;SDS011;22748;8.426;99.512;2022-12-07T15:36:18;13.18;;;6.25;;
36797;SDS011;22748;8.426;99.512;2022-12-07T15:38:51;10.60;;;5.90;;
36797;SDS011;22748;8.426;99.512;2022-12-07T15:41:20;12.32;;;7.10;;
36797;SDS011;22748;8.426;99.512;2022-12-07T15:43:52;14.90;;;7.60;;
36797;SDS011;22748;8.426;99.512;2022-12-07T15:46:35;16.85;;;8.65;;
36797;SDS011;22748;8.426;99.512;2022-12-07T15:49:10;18.13;;;10.05;;
36797;SDS011;22748;8.426;99.512;2022-12-07T15:51:43;15.40;;;10.10;;
36797;SDS011;22748;8.426;99.512;2022-12-07T15:54:14;19.42;;;10.30;;
36797;SDS011;22748;8.426;99.512;2022-12-07T15:56:47;15.07;;;10.15;;
36797;SDS011;22748;8.426;99.512;2022-12-07T15:59:18;16.95;;;10.27;;
36797;SDS011;22748;8.426;99.512;2022-12-07T16:01:49;15.43;;;10.15;;
36797;SDS011;22748;8.426;99.512;2022-12-07T16:04:21;12.98;;;9.45;;
36797;SDS011;22748;8.426;99.512;2022-12-07T16:06:52;15.70;;;9.00;;
36797;SDS011;22748;8.426;99.512;2022-12-07T16:09:23;10.77;;;8.25;;
36797;SDS011;22748;8.426;99.512;2022-12-07T16:11:55;12.57;;;7.93;;
36797;SDS011;22748;8.426;99.512;2022-12-07T16:14:24;14.73;;;8.13;;
36797;SDS011;22748;8.426;99.512;2022-12-07T16:16:55;15.52;;;8.75;;
36797;SDS011;22748;8.426;99.512;2022-12-07T16:19:28;16.38;;;8.32;;
36797;SDS011;22748;8.426;99.512;2022-12-07T16:21:59;14.05;;;8.55;;
36797;SDS011;22748;8.426;99.512;2022-12-07T16:24:30;14.32;;;7.97;;
36797;SDS011;22748;8.426;99.512;2022-12-07T16:27:02;12.13;;;7.65;;